createdAt,value
2023-03-21T00:03:44.426Z,10.47
2023-03-21T00:07:47.503Z,10.46
2023-03-21T00:11:50.738Z,10.41
2023-03-21T00:16:06.461Z,10.37
2023-03-21T00:20:16.030Z,10.39
2023-03-21T00:24:19.159Z,10.40
2023-03-21T00:28:23.375Z,10.39
2023-03-21T00:32:27.916Z,10.39
2023-03-21T00:36:31.007Z,10.37
2023-03-21T00:40:40.428Z,10.39
2023-03-21T00:44:46.201Z,10.40
2023-03-21T00:48:50.607Z,10.36
2023-03-21T00:52:53.622Z,10.32
2023-03-21T00:56:56.745Z,10.36
2023-03-21T01:01:02.712Z,10.35
2023-03-21T01:05:08.166Z,10.31
2023-03-21T01:09:14.352Z,10.30
2023-03-21T01:13:22.377Z,10.30
2023-03-21T01:17:25.419Z,10.26
2023-03-21T01:21:29.988Z,10.20
2023-03-21T01:25:33.036Z,10.12
2023-03-21T01:29:36.184Z,10.10
2023-03-21T01:33:39.581Z,9.98
2023-03-21T01:37:44.730Z,9.89
2023-03-21T01:41:47.858Z,9.85
2023-03-21T01:46:23.923Z,9.82
2023-03-21T01:50:51.492Z,9.73
2023-03-21T01:55:16.194Z,9.68
2023-03-21T01:59:34.903Z,9.55
2023-03-21T02:03:52.048Z,9.51
2023-03-21T02:08:38.103Z,9.49
2023-03-21T02:12:47.887Z,9.52
2023-03-21T02:17:05.445Z,9.51
2023-03-21T02:21:55.539Z,9.56
2023-03-21T02:26:42.026Z,9.55
2023-03-21T02:31:18.209Z,9.62
2023-03-21T02:35:39.087Z,9.58
2023-03-21T02:40:07.866Z,9.57
2023-03-21T02:44:20.421Z,9.58
2023-03-21T02:48:44.381Z,9.62
2023-03-21T02:52:55.252Z,9.62
2023-03-21T02:57:01.542Z,9.64
2023-03-21T03:01:07.190Z,9.62
2023-03-21T03:05:22.221Z,9.58
2023-03-21T03:09:39.387Z,9.59
2023-03-21T03:13:58.645Z,9.57
2023-03-21T03:18:11.359Z,9.58
2023-03-21T03:22:19.367Z,9.56
2023-03-21T03:26:27.112Z,9.61
2023-03-21T03:30:43.417Z,9.70
2023-03-21T03:34:57.046Z,9.71
2023-03-21T03:39:07.283Z,9.64
2023-03-21T03:43:14.978Z,9.57
2023-03-21T03:47:32.822Z,9.58
2023-03-21T03:51:50.081Z,9.48
2023-03-21T03:56:09.803Z,9.41
2023-03-21T04:00:17.237Z,9.30
2023-03-21T04:04:23.057Z,9.16
2023-03-21T04:08:28.349Z,9.25
2023-03-21T04:12:33.661Z,9.14
2023-03-21T04:17:08.658Z,9.09
2023-03-21T04:21:14.861Z,9.06
2023-03-21T04:25:30.675Z,9.20
2023-03-21T04:29:36.928Z,9.33
2023-03-21T04:33:57.144Z,9.16
2023-03-21T04:38:02.249Z,9.17
2023-03-21T04:42:05.966Z,9.16
2023-03-21T04:46:09.064Z,9.16
2023-03-21T04:50:13.056Z,9.12
2023-03-21T04:54:18.058Z,9.08
2023-03-21T04:58:21.343Z,9.04
2023-03-21T05:02:24.687Z,9.06
2023-03-21T05:06:28.498Z,9.09
2023-03-21T05:10:33.242Z,9.17
2023-03-21T05:14:36.366Z,9.19
2023-03-21T05:18:42.335Z,9.21
2023-03-21T05:22:52.133Z,9.21
2023-03-21T05:27:02.762Z,9.27
2023-03-21T05:31:09.604Z,9.28
2023-03-21T05:35:13.012Z,9.35
2023-03-21T05:39:16.926Z,9.42
2023-03-21T05:43:32.240Z,9.48
2023-03-21T05:47:36.155Z,9.53
2023-03-21T05:51:40.111Z,9.56
2023-03-21T05:55:43.283Z,9.54
2023-03-21T05:59:55.005Z,9.62
2023-03-21T06:03:58.497Z,9.76
2023-03-21T06:08:04.208Z,9.71
2023-03-21T06:12:08.184Z,9.72
2023-03-21T06:16:31.351Z,9.72
2023-03-21T06:20:34.550Z,9.76
2023-03-21T06:24:44.096Z,9.78
2023-03-21T06:28:47.483Z,9.85
2023-03-21T06:32:53.082Z,9.89
2023-03-21T06:36:56.285Z,9.91
2023-03-21T06:41:05.818Z,9.94
2023-03-21T06:45:16.596Z,9.98
2023-03-21T06:49:22.333Z,10.04
2023-03-21T06:53:28.107Z,10.10
2023-03-21T06:57:50.442Z,10.13
2023-03-21T07:01:53.601Z,10.18
2023-03-21T07:05:58.646Z,10.21
2023-03-21T07:10:02.073Z,10.15
2023-03-21T07:14:10.276Z,10.08
2023-03-21T07:18:14.589Z,10.03
2023-03-21T07:22:20.906Z,10.02
2023-03-21T07:26:23.981Z,10.00
2023-03-21T07:30:27.329Z,9.93
2023-03-21T07:34:33.180Z,9.86
2023-03-21T07:38:41.227Z,9.79
2023-03-21T07:42:44.657Z,9.73
2023-03-21T07:46:49.712Z,9.72
2023-03-21T07:50:52.733Z,9.74
2023-03-21T07:54:57.119Z,9.76
2023-03-21T07:59:00.335Z,9.80
2023-03-21T08:03:03.636Z,9.83
2023-03-21T08:07:06.847Z,9.91
2023-03-21T08:11:12.763Z,9.94
2023-03-21T08:15:16.626Z,9.98
2023-03-21T08:19:21.832Z,10.06
2023-03-21T08:23:26.085Z,10.11
2023-03-21T08:27:30.870Z,10.17
2023-03-21T08:31:33.906Z,10.24
2023-03-21T08:35:40.429Z,10.42
2023-03-21T08:39:44.004Z,10.42
2023-03-21T08:43:48.512Z,10.62
2023-03-21T08:47:51.636Z,10.71
2023-03-21T08:51:57.000Z,10.77
2023-03-21T08:56:00.084Z,10.78
2023-03-21T09:00:11.233Z,10.85
2023-03-21T09:04:14.812Z,10.99
2023-03-21T09:08:18.233Z,11.20
2023-03-21T09:12:21.310Z,11.20
2023-03-21T09:16:25.821Z,11.27
2023-03-21T09:20:33.053Z,11.26
2023-03-21T09:24:36.175Z,11.14
2023-03-21T09:28:39.270Z,11.08
2023-03-21T09:32:48.703Z,10.98
2023-03-21T09:36:56.607Z,10.94
2023-03-21T09:41:14.189Z,10.73
2023-03-21T09:45:23.095Z,10.71
2023-03-21T09:49:32.998Z,10.69
2023-03-21T09:53:41.194Z,10.75
2023-03-21T09:57:46.666Z,10.98
2023-03-21T10:01:50.471Z,11.15
2023-03-21T10:05:58.715Z,11.17
2023-03-21T10:10:04.513Z,11.36
2023-03-21T10:14:17.809Z,11.72
2023-03-21T10:18:25.151Z,12.22
2023-03-21T10:22:29.623Z,12.29
2023-03-21T10:26:33.175Z,12.62
2023-03-21T10:30:42.283Z,12.71
2023-03-21T10:34:47.877Z,12.73
2023-03-21T10:38:56.288Z,12.65
2023-03-21T10:43:17.884Z,12.67
2023-03-21T10:47:22.507Z,12.89
2023-03-21T10:51:29.452Z,12.89
2023-03-21T10:55:36.230Z,12.82
2023-03-21T10:59:44.357Z,12.86
2023-03-21T11:03:48.352Z,12.86
2023-03-21T11:08:00.132Z,12.85
2023-03-21T11:12:10.825Z,12.90
2023-03-21T11:16:24.132Z,12.91
2023-03-21T11:20:30.916Z,12.88
2023-03-21T11:24:36.667Z,12.86
2023-03-21T11:28:44.905Z,12.90
2023-03-21T11:32:54.948Z,13.04
2023-03-21T11:37:01.431Z,12.95
2023-03-21T11:41:06.241Z,12.80
2023-03-21T11:45:15.958Z,12.63
2023-03-21T11:49:19.249Z,12.48
2023-03-21T11:53:32.870Z,12.40
2023-03-21T11:57:45.284Z,12.55
2023-03-21T12:01:59.823Z,12.71
2023-03-21T12:06:06.628Z,13.00
2023-03-21T12:10:32.730Z,13.17
2023-03-21T12:14:44.726Z,13.08
2023-03-21T12:19:02.820Z,13.26
2023-03-21T12:23:37.009Z,13.13
2023-03-21T12:27:48.728Z,13.25
2023-03-21T12:32:04.125Z,13.53
2023-03-21T12:36:24.103Z,13.55
2023-03-21T12:40:45.611Z,13.49
2023-03-21T12:44:55.284Z,13.45
2023-03-21T12:49:02.703Z,13.41
2023-03-21T12:53:28.485Z,13.91
2023-03-21T12:57:40.194Z,14.04
2023-03-21T13:01:49.528Z,14.57
2023-03-21T13:05:56.762Z,14.94
2023-03-21T13:10:02.277Z,14.43
2023-03-21T13:14:08.739Z,14.50
2023-03-21T13:18:20.726Z,14.96
2023-03-21T13:22:28.734Z,14.84
2023-03-21T13:26:39.890Z,14.83
2023-03-21T13:30:43.077Z,14.45
2023-03-21T13:34:46.580Z,14.54
2023-03-21T13:38:52.173Z,14.73
2023-03-21T13:42:59.625Z,15.34
2023-03-21T13:47:05.215Z,15.61
2023-03-21T13:51:08.959Z,15.27
2023-03-21T13:55:17.698Z,15.75
2023-03-21T13:59:38.914Z,15.04
2023-03-21T14:03:43.271Z,15.58
2023-03-21T14:07:50.073Z,15.56
2023-03-21T14:11:58.673Z,14.86
2023-03-21T14:16:12.711Z,14.87
2023-03-21T14:20:20.766Z,14.91
2023-03-21T14:24:23.807Z,15.38
2023-03-21T14:28:29.638Z,16.50
2023-03-21T14:32:34.121Z,16.36
2023-03-21T14:36:45.801Z,17.06
2023-03-21T14:40:54.803Z,16.67
2023-03-21T14:45:00.584Z,16.66
2023-03-21T14:49:26.121Z,15.84
2023-03-21T14:53:32.150Z,15.74
2023-03-21T14:57:35.615Z,15.80
2023-03-21T15:01:38.793Z,17.32
2023-03-21T15:05:43.450Z,17.97
2023-03-21T15:09:54.767Z,17.14
2023-03-21T15:14:00.033Z,15.78
2023-03-21T15:18:07.014Z,16.72
2023-03-21T15:22:20.946Z,17.71
2023-03-21T15:26:26.925Z,16.66
2023-03-21T15:30:32.020Z,16.02
2023-03-21T15:34:35.668Z,16.50
2023-03-21T15:38:45.083Z,15.50
2023-03-21T15:42:48.322Z,15.53
2023-03-21T15:46:53.434Z,15.76
2023-03-21T15:51:02.905Z,17.15
2023-03-21T15:55:21.662Z,16.75
2023-03-21T15:59:28.194Z,15.87
2023-03-21T16:03:33.878Z,15.54
2023-03-21T16:07:37.028Z,15.14
2023-03-21T16:11:44.068Z,15.21
2023-03-21T16:15:47.383Z,15.15
2023-03-21T16:19:51.025Z,15.15
2023-03-21T16:23:54.371Z,15.06
2023-03-21T16:27:59.698Z,15.06
2023-03-21T16:32:06.287Z,14.95
2023-03-21T16:36:15.573Z,15.00
2023-03-21T16:40:27.732Z,15.03
2023-03-21T16:44:32.279Z,14.88
2023-03-21T16:48:35.611Z,14.87
2023-03-21T16:52:38.710Z,14.75
2023-03-21T16:56:45.992Z,14.69
2023-03-21T17:00:50.585Z,14.65
2023-03-21T17:04:53.789Z,14.64
2023-03-21T17:08:58.660Z,14.62
2023-03-21T17:13:01.971Z,14.43
2023-03-21T17:17:06.632Z,14.08
2023-03-21T17:21:13.984Z,14.17
2023-03-21T17:25:18.491Z,14.16
2023-03-21T17:29:21.777Z,14.20
2023-03-21T17:33:26.373Z,14.08
2023-03-21T17:37:29.669Z,14.09
2023-03-21T17:41:33.044Z,13.92
2023-03-21T17:45:36.493Z,13.97
2023-03-21T17:49:41.336Z,13.94
2023-03-21T17:53:44.920Z,13.95
2023-03-21T17:57:49.285Z,13.90
2023-03-21T18:01:52.569Z,13.89
2023-03-21T18:05:57.247Z,13.81
2023-03-21T18:10:00.487Z,13.81
2023-03-21T18:14:15.389Z,13.78
2023-03-21T18:18:21.527Z,13.76
2023-03-21T18:22:26.339Z,13.72
2023-03-21T18:26:31.202Z,13.70
2023-03-21T18:30:56.400Z,13.67
2023-03-21T18:35:00.526Z,13.67
2023-03-21T18:39:05.266Z,13.67
2023-03-21T18:43:52.564Z,13.68
2023-03-21T18:47:31.813Z,13.65
2023-03-21T18:51:35.099Z,13.60
2023-03-21T18:55:45.850Z,13.57
2023-03-21T18:59:49.460Z,13.55
2023-03-21T19:04:16.540Z,13.52
2023-03-21T19:08:22.671Z,13.49
2023-03-21T19:12:28.029Z,13.47
2023-03-21T19:16:45.350Z,13.34
2023-03-21T19:20:55.506Z,13.16
2023-03-21T19:24:58.847Z,13.08
2023-03-21T19:29:04.053Z,12.95
2023-03-21T19:33:07.481Z,12.86
2023-03-21T19:37:10.864Z,12.77
2023-03-21T19:41:14.125Z,12.73
2023-03-21T19:45:19.048Z,12.62
2023-03-21T19:49:34.595Z,12.54
2023-03-21T19:53:46.104Z,12.37
2023-03-21T19:57:49.579Z,12.36
2023-03-21T20:01:57.011Z,12.30
2023-03-21T20:06:06.927Z,12.30
2023-03-21T20:10:11.131Z,12.35
2023-03-21T20:14:14.475Z,12.35
2023-03-21T20:18:20.467Z,12.31
2023-03-21T20:22:35.933Z,12.26
2023-03-21T20:26:47.196Z,12.29
2023-03-21T20:30:53.046Z,12.25
2023-03-21T20:35:10.219Z,12.17
2023-03-21T20:39:20.476Z,12.12
2023-03-21T20:44:11.681Z,12.01
2023-03-21T20:47:48.295Z,12.06
2023-03-21T20:56:20.796Z,12.07
2023-03-21T21:00:24.591Z,12.13
2023-03-21T21:04:55.800Z,12.26
2023-03-21T21:08:56.787Z,12.30
2023-03-21T21:13:02.831Z,12.34
2023-03-21T21:17:26.725Z,12.38
2023-03-21T21:21:31.756Z,12.54
2023-03-21T21:25:38.825Z,12.49
2023-03-21T21:29:43.758Z,12.47
2023-03-21T21:33:50.303Z,12.53
2023-03-21T21:37:53.809Z,12.49
2023-03-21T21:41:58.366Z,12.63
2023-03-21T21:46:02.332Z,12.67
2023-03-21T21:50:09.632Z,12.68
2023-03-21T21:54:18.698Z,12.64
2023-03-21T21:58:23.732Z,12.54
2023-03-21T22:02:27.501Z,12.41
2023-03-21T22:06:30.776Z,12.36
2023-03-21T22:10:35.156Z,12.40
2023-03-21T22:14:40.148Z,12.39
2023-03-21T22:18:44.600Z,12.33
2023-03-21T22:22:48.430Z,12.35
2023-03-21T22:26:57.926Z,12.26
2023-03-21T22:31:12.613Z,12.18
2023-03-21T22:35:15.800Z,12.24
2023-03-21T22:39:19.939Z,12.30
2023-03-21T22:43:23.718Z,12.28
2023-03-21T22:47:28.608Z,12.33
2023-03-21T22:51:32.263Z,12.34
2023-03-21T22:55:35.829Z,12.28
2023-03-21T22:59:39.042Z,12.32
2023-03-21T23:03:44.456Z,12.32
2023-03-21T23:07:47.827Z,12.39
2023-03-21T23:11:52.002Z,12.38
2023-03-21T23:15:55.335Z,12.43
2023-03-21T23:19:59.939Z,12.40
2023-03-21T23:24:03.600Z,12.43
2023-03-21T23:28:08.329Z,12.43
2023-03-21T23:32:11.787Z,12.38
2023-03-21T23:36:18.134Z,12.36
2023-03-21T23:40:22.374Z,12.26
2023-03-21T23:44:26.505Z,12.12
2023-03-21T23:48:29.983Z,12.11
2023-03-21T23:52:35.821Z,12.02
2023-03-21T23:56:38.976Z,11.98
